sensor_id;sensor_type;location;lat;lon;timestamp;temperature;humidity
18884;DHT22;9574;47.282;9.640;2023-03-14T00:00:12;13.40;99.90
18884;DHT22;9574;47.282;9.640;2023-03-14T00:02:40;13.40;99.90
18884;DHT22;9574;47.282;9.640;2023-03-14T00:05:09;13.10;99.90
18884;DHT22;9574;47.282;9.640;2023-03-14T00:07:37;13.10;99.90
18884;DHT22;9574;47.282;9.640;2023-03-14T00:10:06;13.00;99.90
18884;DHT22;9574;47.282;9.640;2023-03-14T00:12:34;13.00;99.90
18884;DHT22;9574;47.282;9.640;2023-03-14T00:15:01;12.80;99.90
18884;DHT22;9574;47.282;9.640;2023-03-14T00:17:30;12.80;99.90
18884;DHT22;9574;47.282;9.640;2023-03-14T00:19:57;12.70;99.90
18884;DHT22;9574;47.282;9.640;2023-03-14T00:22:31;12.70;99.90
18884;DHT22;9574;47.282;9.640;2023-03-14T00:24:58;12.70;99.90
18884;DHT22;9574;47.282;9.640;2023-03-14T00:27:25;12.30;99.90
18884;DHT22;9574;47.282;9.640;2023-03-14T00:29:52;11.90;99.90
18884;DHT22;9574;47.282;9.640;2023-03-14T00:32:19;11.60;99.90
18884;DHT22;9574;47.282;9.640;2023-03-14T00:34:46;11.50;99.90
18884;DHT22;9574;47.282;9.640;2023-03-14T00:37:13;11.30;99.90
18884;DHT22;9574;47.282;9.640;2023-03-14T00:39:42;11.20;99.90
18884;DHT22;9574;47.282;9.640;2023-03-14T00:42:09;11.10;99.90
18884;DHT22;9574;47.282;9.640;2023-03-14T00:44:36;11.10;99.90
18884;DHT22;9574;47.282;9.640;2023-03-14T00:47:03;11.20;99.90
18884;DHT22;9574;47.282;9.640;2023-03-14T00:49:30;11.60;99.90
18884;DHT22;9574;47.282;9.640;2023-03-14T00:51:57;11.80;99.90
18884;DHT22;9574;47.282;9.640;2023-03-14T00:54:24;11.70;99.90
18884;DHT22;9574;47.282;9.640;2023-03-14T00:56:53;11.60;99.90
18884;DHT22;9574;47.282;9.640;2023-03-14T00:59:20;11.40;99.90
18884;DHT22;9574;47.282;9.640;2023-03-14T01:01:47;11.40;99.90
18884;DHT22;9574;47.282;9.640;2023-03-14T01:04:14;11.30;99.90
18884;DHT22;9574;47.282;9.640;2023-03-14T01:06:41;11.30;99.90
18884;DHT22;9574;47.282;9.640;2023-03-14T01:09:07;11.20;99.90
18884;DHT22;9574;47.282;9.640;2023-03-14T01:11:35;10.90;99.90
18884;DHT22;9574;47.282;9.640;2023-03-14T01:14:04;10.80;99.90
18884;DHT22;9574;47.282;9.640;2023-03-14T01:16:34;10.60;99.90
18884;DHT22;9574;47.282;9.640;2023-03-14T01:19:01;10.70;99.90
18884;DHT22;9574;47.282;9.640;2023-03-14T01:21:30;10.60;99.90
18884;DHT22;9574;47.282;9.640;2023-03-14T01:23:59;10.40;99.90
18884;DHT22;9574;47.282;9.640;2023-03-14T01:26:29;10.20;99.90
18884;DHT22;9574;47.282;9.640;2023-03-14T01:28:57;10.10;99.90
18884;DHT22;9574;47.282;9.640;2023-03-14T01:31:26;10.10;99.90
18884;DHT22;9574;47.282;9.640;2023-03-14T01:33:54;10.10;99.90
18884;DHT22;9574;47.282;9.640;2023-03-14T01:36:21;9.80;99.90
18884;DHT22;9574;47.282;9.640;2023-03-14T01:38:48;9.70;99.90
18884;DHT22;9574;47.282;9.640;2023-03-14T01:41:17;9.70;99.90
18884;DHT22;9574;47.282;9.640;2023-03-14T01:43:44;9.60;99.90
18884;DHT22;9574;47.282;9.640;2023-03-14T01:46:26;9.60;99.90
18884;DHT22;9574;47.282;9.640;2023-03-14T01:48:59;9.50;99.90
18884;DHT22;9574;47.282;9.640;2023-03-14T01:51:32;9.60;99.90
18884;DHT22;9574;47.282;9.640;2023-03-14T01:54:07;9.70;99.90
18884;DHT22;9574;47.282;9.640;2023-03-14T01:56:36;9.80;99.90
18884;DHT22;9574;47.282;9.640;2023-03-14T01:59:06;9.80;99.90
18884;DHT22;9574;47.282;9.640;2023-03-14T02:01:36;9.80;99.90
18884;DHT22;9574;47.282;9.640;2023-03-14T02:04:05;10.00;99.90
18884;DHT22;9574;47.282;9.640;2023-03-14T02:06:41;10.00;99.90
18884;DHT22;9574;47.282;9.640;2023-03-14T02:09:10;10.00;99.90
18884;DHT22;9574;47.282;9.640;2023-03-14T02:11:37;10.30;99.90
18884;DHT22;9574;47.282;9.640;2023-03-14T02:14:05;10.70;99.90
18884;DHT22;9574;47.282;9.640;2023-03-14T02:16:32;10.80;99.90
18884;DHT22;9574;47.282;9.640;2023-03-14T02:19:03;10.60;99.90
18884;DHT22;9574;47.282;9.640;2023-03-14T02:21:42;10.30;99.90
18884;DHT22;9574;47.282;9.640;2023-03-14T02:24:16;10.10;99.90
18884;DHT22;9574;47.282;9.640;2023-03-14T02:29:29;9.60;99.90
18884;DHT22;9574;47.282;9.640;2023-03-14T02:31:57;9.40;99.90
18884;DHT22;9574;47.282;9.640;2023-03-14T02:34:24;9.40;99.90
18884;DHT22;9574;47.282;9.640;2023-03-14T02:36:52;9.30;99.90
18884;DHT22;9574;47.282;9.640;2023-03-14T02:39:21;9.30;99.90
18884;DHT22;9574;47.282;9.640;2023-03-14T02:41:50;9.40;99.90
18884;DHT22;9574;47.282;9.640;2023-03-14T02:44:17;9.40;99.90
18884;DHT22;9574;47.282;9.640;2023-03-14T02:46:45;9.40;99.90
18884;DHT22;9574;47.282;9.640;2023-03-14T02:49:14;9.40;99.90
18884;DHT22;9574;47.282;9.640;2023-03-14T02:51:41;9.40;99.90
18884;DHT22;9574;47.282;9.640;2023-03-14T02:54:09;9.40;99.90
18884;DHT22;9574;47.282;9.640;2023-03-14T02:56:36;9.40;99.90
18884;DHT22;9574;47.282;9.640;2023-03-14T02:59:04;9.80;99.90
18884;DHT22;9574;47.282;9.640;2023-03-14T03:01:32;10.10;99.90
18884;DHT22;9574;47.282;9.640;2023-03-14T03:04:01;10.00;99.90
18884;DHT22;9574;47.282;9.640;2023-03-14T03:06:28;9.90;99.90
18884;DHT22;9574;47.282;9.640;2023-03-14T03:08:55;10.20;99.90
18884;DHT22;9574;47.282;9.640;2023-03-14T03:11:22;10.50;99.90
18884;DHT22;9574;47.282;9.640;2023-03-14T03:13:49;10.50;99.90
18884;DHT22;9574;47.282;9.640;2023-03-14T03:16:16;10.60;99.90
18884;DHT22;9574;47.282;9.640;2023-03-14T03:18:43;10.60;99.90
18884;DHT22;9574;47.282;9.640;2023-03-14T03:21:11;10.60;99.90
18884;DHT22;9574;47.282;9.640;2023-03-14T03:23:38;10.80;99.90
18884;DHT22;9574;47.282;9.640;2023-03-14T03:26:06;10.60;99.90
18884;DHT22;9574;47.282;9.640;2023-03-14T03:28:33;10.50;99.90
18884;DHT22;9574;47.282;9.640;2023-03-14T03:31:06;10.50;99.90
18884;DHT22;9574;47.282;9.640;2023-03-14T03:33:33;10.30;99.90
18884;DHT22;9574;47.282;9.640;2023-03-14T03:36:00;10.20;99.90
18884;DHT22;9574;47.282;9.640;2023-03-14T03:38:29;10.50;99.90
18884;DHT22;9574;47.282;9.640;2023-03-14T03:40:56;10.20;99.90
18884;DHT22;9574;47.282;9.640;2023-03-14T03:43:23;10.10;99.90
18884;DHT22;9574;47.282;9.640;2023-03-14T03:45:50;9.80;99.90
18884;DHT22;9574;47.282;9.640;2023-03-14T03:48:17;9.70;99.90
18884;DHT22;9574;47.282;9.640;2023-03-14T03:50:44;9.50;99.90
18884;DHT22;9574;47.282;9.640;2023-03-14T03:53:11;9.30;99.90
18884;DHT22;9574;47.282;9.640;2023-03-14T03:55:42;9.30;99.90
18884;DHT22;9574;47.282;9.640;2023-03-14T03:58:09;9.20;99.90
18884;DHT22;9574;47.282;9.640;2023-03-14T04:00:36;9.20;99.90
18884;DHT22;9574;47.282;9.640;2023-03-14T04:03:03;9.20;99.90
18884;DHT22;9574;47.282;9.640;2023-03-14T04:05:30;9.20;99.90
18884;DHT22;9574;47.282;9.640;2023-03-14T04:07:57;9.20;99.90
18884;DHT22;9574;47.282;9.640;2023-03-14T04:10:24;9.20;99.90
18884;DHT22;9574;47.282;9.640;2023-03-14T04:12:52;9.50;99.90
18884;DHT22;9574;47.282;9.640;2023-03-14T04:15:19;9.40;99.90
18884;DHT22;9574;47.282;9.640;2023-03-14T04:17:46;9.40;99.90
18884;DHT22;9574;47.282;9.640;2023-03-14T04:20:13;9.30;99.90
18884;DHT22;9574;47.282;9.640;2023-03-14T04:22:40;9.20;99.90
18884;DHT22;9574;47.282;9.640;2023-03-14T04:25:07;9.10;99.90
18884;DHT22;9574;47.282;9.640;2023-03-14T04:27:35;9.10;99.90
18884;DHT22;9574;47.282;9.640;2023-03-14T04:30:04;9.10;99.90
18884;DHT22;9574;47.282;9.640;2023-03-14T04:32:31;9.20;99.90
18884;DHT22;9574;47.282;9.640;2023-03-14T04:34:58;9.30;99.90
18884;DHT22;9574;47.282;9.640;2023-03-14T04:37:25;9.40;99.90
18884;DHT22;9574;47.282;9.640;2023-03-14T04:39:51;9.40;99.90
18884;DHT22;9574;47.282;9.640;2023-03-14T04:42:18;9.60;99.90
18884;DHT22;9574;47.282;9.640;2023-03-14T04:44:45;9.90;99.90
18884;DHT22;9574;47.282;9.640;2023-03-14T04:47:16;10.20;99.90
18884;DHT22;9574;47.282;9.640;2023-03-14T04:49:43;10.30;99.90
18884;DHT22;9574;47.282;9.640;2023-03-14T04:52:10;10.40;99.90
18884;DHT22;9574;47.282;9.640;2023-03-14T04:54:37;10.50;99.90
18884;DHT22;9574;47.282;9.640;2023-03-14T04:57:04;10.10;99.90
18884;DHT22;9574;47.282;9.640;2023-03-14T04:59:31;9.80;99.90
18884;DHT22;9574;47.282;9.640;2023-03-14T05:01:58;9.60;99.90
18884;DHT22;9574;47.282;9.640;2023-03-14T05:04:26;9.40;99.90
18884;DHT22;9574;47.282;9.640;2023-03-14T05:06:53;9.10;99.90
18884;DHT22;9574;47.282;9.640;2023-03-14T05:09:20;9.00;99.90
18884;DHT22;9574;47.282;9.640;2023-03-14T05:11:47;8.90;99.90
18884;DHT22;9574;47.282;9.640;2023-03-14T05:14:14;8.80;99.90
18884;DHT22;9574;47.282;9.640;2023-03-14T05:16:41;8.70;99.90
18884;DHT22;9574;47.282;9.640;2023-03-14T05:19:08;8.60;99.90
18884;DHT22;9574;47.282;9.640;2023-03-14T05:21:38;8.50;99.90
18884;DHT22;9574;47.282;9.640;2023-03-14T05:24:05;8.50;99.90
18884;DHT22;9574;47.282;9.640;2023-03-14T05:26:32;8.50;99.90
18884;DHT22;9574;47.282;9.640;2023-03-14T05:28:59;8.50;99.90
18884;DHT22;9574;47.282;9.640;2023-03-14T05:31:26;8.60;99.90
18884;DHT22;9574;47.282;9.640;2023-03-14T05:33:53;8.60;99.90
18884;DHT22;9574;47.282;9.640;2023-03-14T05:36:20;8.70;99.90
18884;DHT22;9574;47.282;9.640;2023-03-14T05:38:48;9.00;99.90
18884;DHT22;9574;47.282;9.640;2023-03-14T05:41:15;9.30;99.90
18884;DHT22;9574;47.282;9.640;2023-03-14T05:43:42;9.50;99.90
18884;DHT22;9574;47.282;9.640;2023-03-14T05:46:09;9.70;99.90
18884;DHT22;9574;47.282;9.640;2023-03-14T05:48:36;9.80;99.90
18884;DHT22;9574;47.282;9.640;2023-03-14T05:51:04;9.90;99.90
18884;DHT22;9574;47.282;9.640;2023-03-14T05:53:31;10.00;99.90
18884;DHT22;9574;47.282;9.640;2023-03-14T05:55:59;9.90;99.90
18884;DHT22;9574;47.282;9.640;2023-03-14T05:58:26;9.60;99.90
18884;DHT22;9574;47.282;9.640;2023-03-14T06:00:53;9.30;99.90
18884;DHT22;9574;47.282;9.640;2023-03-14T06:03:20;9.30;99.90
18884;DHT22;9574;47.282;9.640;2023-03-14T06:05:49;9.30;99.90
18884;DHT22;9574;47.282;9.640;2023-03-14T06:08:16;9.50;99.90
18884;DHT22;9574;47.282;9.640;2023-03-14T06:10:43;9.70;99.90
18884;DHT22;9574;47.282;9.640;2023-03-14T06:13:12;9.80;99.90
18884;DHT22;9574;47.282;9.640;2023-03-14T06:15:40;9.90;99.90
18884;DHT22;9574;47.282;9.640;2023-03-14T06:18:08;9.90;99.90
18884;DHT22;9574;47.282;9.640;2023-03-14T06:20:36;9.90;99.90
18884;DHT22;9574;47.282;9.640;2023-03-14T06:23:04;9.60;99.90
18884;DHT22;9574;47.282;9.640;2023-03-14T06:25:32;9.40;99.90
18884;DHT22;9574;47.282;9.640;2023-03-14T06:27:59;9.60;99.90
18884;DHT22;9574;47.282;9.640;2023-03-14T06:30:27;9.70;99.90
18884;DHT22;9574;47.282;9.640;2023-03-14T06:32:54;9.70;99.90
18884;DHT22;9574;47.282;9.640;2023-03-14T06:35:21;9.60;99.90
18884;DHT22;9574;47.282;9.640;2023-03-14T06:37:48;9.40;99.90
18884;DHT22;9574;47.282;9.640;2023-03-14T06:40:16;9.30;99.90
18884;DHT22;9574;47.282;9.640;2023-03-14T06:42:43;9.00;99.90
18884;DHT22;9574;47.282;9.640;2023-03-14T06:45:10;8.80;99.90
18884;DHT22;9574;47.282;9.640;2023-03-14T06:47:39;8.70;99.90
18884;DHT22;9574;47.282;9.640;2023-03-14T06:50:07;8.60;99.90
18884;DHT22;9574;47.282;9.640;2023-03-14T06:52:34;8.60;99.90
18884;DHT22;9574;47.282;9.640;2023-03-14T06:55:01;8.90;99.90
18884;DHT22;9574;47.282;9.640;2023-03-14T06:57:28;8.90;99.90
18884;DHT22;9574;47.282;9.640;2023-03-14T06:59:55;9.00;99.90
18884;DHT22;9574;47.282;9.640;2023-03-14T07:02:22;9.10;99.90
18884;DHT22;9574;47.282;9.640;2023-03-14T07:04:51;9.10;99.90
18884;DHT22;9574;47.282;9.640;2023-03-14T07:07:18;9.20;99.90
18884;DHT22;9574;47.282;9.640;2023-03-14T07:09:45;9.00;99.90
18884;DHT22;9574;47.282;9.640;2023-03-14T07:12:12;8.70;99.90
18884;DHT22;9574;47.282;9.640;2023-03-14T07:14:39;8.90;99.90
18884;DHT22;9574;47.282;9.640;2023-03-14T07:17:06;9.00;99.90
18884;DHT22;9574;47.282;9.640;2023-03-14T07:19:32;9.10;99.90
18884;DHT22;9574;47.282;9.640;2023-03-14T07:22:01;9.30;99.90
18884;DHT22;9574;47.282;9.640;2023-03-14T07:24:28;9.30;99.90
18884;DHT22;9574;47.282;9.640;2023-03-14T07:26:55;9.40;99.90
18884;DHT22;9574;47.282;9.640;2023-03-14T07:29:22;9.40;99.90
18884;DHT22;9574;47.282;9.640;2023-03-14T07:31:49;9.60;99.90
18884;DHT22;9574;47.282;9.640;2023-03-14T07:34:16;9.70;99.90
18884;DHT22;9574;47.282;9.640;2023-03-14T07:36:43;9.80;99.90
18884;DHT22;9574;47.282;9.640;2023-03-14T07:39:11;9.70;99.90
18884;DHT22;9574;47.282;9.640;2023-03-14T07:41:38;9.80;99.90
18884;DHT22;9574;47.282;9.640;2023-03-14T07:44:05;9.70;99.90
18884;DHT22;9574;47.282;9.640;2023-03-14T07:46:32;9.70;99.90
18884;DHT22;9574;47.282;9.640;2023-03-14T07:48:59;9.70;99.90
18884;DHT22;9574;47.282;9.640;2023-03-14T07:51:26;9.50;99.90
18884;DHT22;9574;47.282;9.640;2023-03-14T07:53:53;9.30;99.90
18884;DHT22;9574;47.282;9.640;2023-03-14T07:56:21;9.20;99.90
18884;DHT22;9574;47.282;9.640;2023-03-14T07:58:48;9.20;99.90
18884;DHT22;9574;47.282;9.640;2023-03-14T08:01:15;9.20;99.90
18884;DHT22;9574;47.282;9.640;2023-03-14T08:03:42;9.20;99.90
18884;DHT22;9574;47.282;9.640;2023-03-14T08:06:09;9.30;99.90
18884;DHT22;9574;47.282;9.640;2023-03-14T08:08:36;9.30;99.90
18884;DHT22;9574;47.282;9.640;2023-03-14T08:11:05;9.30;99.90
18884;DHT22;9574;47.282;9.640;2023-03-14T08:13:35;9.50;99.90
18884;DHT22;9574;47.282;9.640;2023-03-14T08:16:03;9.60;99.90
18884;DHT22;9574;47.282;9.640;2023-03-14T08:18:30;9.90;99.90
18884;DHT22;9574;47.282;9.640;2023-03-14T08:20:57;10.30;99.90
18884;DHT22;9574;47.282;9.640;2023-03-14T08:23:24;10.80;99.90
18884;DHT22;9574;47.282;9.640;2023-03-14T08:25:51;11.10;99.90
18884;DHT22;9574;47.282;9.640;2023-03-14T08:28:18;10.90;99.90
18884;DHT22;9574;47.282;9.640;2023-03-14T08:30:47;10.80;99.90
18884;DHT22;9574;47.282;9.640;2023-03-14T08:33:14;10.90;99.90
18884;DHT22;9574;47.282;9.640;2023-03-14T08:35:42;10.90;99.90
18884;DHT22;9574;47.282;9.640;2023-03-14T08:38:09;10.90;99.90
18884;DHT22;9574;47.282;9.640;2023-03-14T08:40:36;11.00;99.90
18884;DHT22;9574;47.282;9.640;2023-03-14T08:43:03;11.30;99.90
18884;DHT22;9574;47.282;9.640;2023-03-14T08:45:30;11.70;99.90
18884;DHT22;9574;47.282;9.640;2023-03-14T08:47:59;11.80;99.90
18884;DHT22;9574;47.282;9.640;2023-03-14T08:50:26;11.60;99.90
18884;DHT22;9574;47.282;9.640;2023-03-14T08:52:53;11.30;99.90
18884;DHT22;9574;47.282;9.640;2023-03-14T08:55:20;10.90;99.90
18884;DHT22;9574;47.282;9.640;2023-03-14T08:57:47;11.20;99.90
18884;DHT22;9574;47.282;9.640;2023-03-14T09:00:15;11.50;99.90
18884;DHT22;9574;47.282;9.640;2023-03-14T09:02:42;11.60;99.90
18884;DHT22;9574;47.282;9.640;2023-03-14T09:05:11;11.60;99.90
18884;DHT22;9574;47.282;9.640;2023-03-14T09:07:39;11.60;99.90
18884;DHT22;9574;47.282;9.640;2023-03-14T09:10:07;11.30;99.90
18884;DHT22;9574;47.282;9.640;2023-03-14T09:12:34;11.50;99.90
18884;DHT22;9574;47.282;9.640;2023-03-14T09:15:01;11.40;99.90
18884;DHT22;9574;47.282;9.640;2023-03-14T09:17:28;11.20;99.90
18884;DHT22;9574;47.282;9.640;2023-03-14T09:19:55;11.10;99.90
18884;DHT22;9574;47.282;9.640;2023-03-14T09:22:24;11.10;99.90
18884;DHT22;9574;47.282;9.640;2023-03-14T09:24:51;11.20;99.90
18884;DHT22;9574;47.282;9.640;2023-03-14T09:27:18;11.50;99.90
18884;DHT22;9574;47.282;9.640;2023-03-14T09:29:45;11.70;99.90
18884;DHT22;9574;47.282;9.640;2023-03-14T09:32:12;11.90;99.90
18884;DHT22;9574;47.282;9.640;2023-03-14T09:34:39;12.00;99.90
18884;DHT22;9574;47.282;9.640;2023-03-14T09:37:06;11.90;99.90
18884;DHT22;9574;47.282;9.640;2023-03-14T09:39:34;12.00;99.90
18884;DHT22;9574;47.282;9.640;2023-03-14T09:42:03;12.00;99.90
18884;DHT22;9574;47.282;9.640;2023-03-14T09:44:32;12.10;99.90
18884;DHT22;9574;47.282;9.640;2023-03-14T09:47:03;12.30;99.90
18884;DHT22;9574;47.282;9.640;2023-03-14T09:49:33;12.30;99.90
18884;DHT22;9574;47.282;9.640;2023-03-14T09:52:02;12.10;99.90
18884;DHT22;9574;47.282;9.640;2023-03-14T09:54:36;12.10;99.90
18884;DHT22;9574;47.282;9.640;2023-03-14T09:57:05;12.20;99.90
18884;DHT22;9574;47.282;9.640;2023-03-14T09:59:33;12.30;99.90
18884;DHT22;9574;47.282;9.640;2023-03-14T10:02:13;12.30;99.90
18884;DHT22;9574;47.282;9.640;2023-03-14T10:04:42;12.30;99.90
18884;DHT22;9574;47.282;9.640;2023-03-14T10:07:13;12.30;99.90
18884;DHT22;9574;47.282;9.640;2023-03-14T10:09:45;12.40;99.90
18884;DHT22;9574;47.282;9.640;2023-03-14T10:12:12;12.70;99.90
18884;DHT22;9574;47.282;9.640;2023-03-14T10:14:46;12.80;99.90
18884;DHT22;9574;47.282;9.640;2023-03-14T10:17:14;12.50;99.90
18884;DHT22;9574;47.282;9.640;2023-03-14T10:19:54;12.10;99.90
18884;DHT22;9574;47.282;9.640;2023-03-14T10:22:21;11.90;99.90
18884;DHT22;9574;47.282;9.640;2023-03-14T10:24:54;12.00;99.90
18884;DHT22;9574;47.282;9.640;2023-03-14T10:27:27;12.00;99.90
18884;DHT22;9574;47.282;9.640;2023-03-14T10:29:56;11.90;99.90
18884;DHT22;9574;47.282;9.640;2023-03-14T10:32:29;12.00;99.90
18884;DHT22;9574;47.282;9.640;2023-03-14T10:35:21;12.00;99.90
18884;DHT22;9574;47.282;9.640;2023-03-14T10:37:50;12.20;99.90
18884;DHT22;9574;47.282;9.640;2023-03-14T10:40:25;12.30;99.90
18884;DHT22;9574;47.282;9.640;2023-03-14T10:42:52;12.40;99.90
18884;DHT22;9574;47.282;9.640;2023-03-14T10:45:30;12.30;99.90
18884;DHT22;9574;47.282;9.640;2023-03-14T10:48:04;12.10;99.90
18884;DHT22;9574;47.282;9.640;2023-03-14T10:50:32;11.90;99.90
18884;DHT22;9574;47.282;9.640;2023-03-14T10:53:02;11.80;99.90
18884;DHT22;9574;47.282;9.640;2023-03-14T10:55:40;11.90;99.90
18884;DHT22;9574;47.282;9.640;2023-03-14T10:58:21;12.10;99.90
18884;DHT22;9574;47.282;9.640;2023-03-14T11:00:56;12.30;99.90
18884;DHT22;9574;47.282;9.640;2023-03-14T11:03:26;12.40;99.90
18884;DHT22;9574;47.282;9.640;2023-03-14T11:05:57;12.60;99.90
18884;DHT22;9574;47.282;9.640;2023-03-14T11:08:33;12.40;99.90
18884;DHT22;9574;47.282;9.640;2023-03-14T11:11:10;12.30;99.90
18884;DHT22;9574;47.282;9.640;2023-03-14T11:13:46;12.20;99.90
18884;DHT22;9574;47.282;9.640;2023-03-14T11:16:21;12.00;99.90
18884;DHT22;9574;47.282;9.640;2023-03-14T11:19:10;11.90;99.90
18884;DHT22;9574;47.282;9.640;2023-03-14T11:21:45;11.80;99.90
18884;DHT22;9574;47.282;9.640;2023-03-14T11:24:27;11.70;99.90
18884;DHT22;9574;47.282;9.640;2023-03-14T11:27:08;11.70;99.90
18884;DHT22;9574;47.282;9.640;2023-03-14T11:29:40;11.70;99.90
18884;DHT22;9574;47.282;9.640;2023-03-14T11:32:13;11.60;99.90
18884;DHT22;9574;47.282;9.640;2023-03-14T11:34:48;11.70;99.90
18884;DHT22;9574;47.282;9.640;2023-03-14T11:37:21;11.70;99.90
18884;DHT22;9574;47.282;9.640;2023-03-14T11:39:58;11.70;99.90
18884;DHT22;9574;47.282;9.640;2023-03-14T11:42:29;11.80;99.90
18884;DHT22;9574;47.282;9.640;2023-03-14T11:45:00;11.80;99.90
18884;DHT22;9574;47.282;9.640;2023-03-14T11:47:30;12.00;99.90
18884;DHT22;9574;47.282;9.640;2023-03-14T11:50:02;12.10;99.90
18884;DHT22;9574;47.282;9.640;2023-03-14T11:52:33;12.10;99.90
18884;DHT22;9574;47.282;9.640;2023-03-14T11:55:04;12.10;99.90
18884;DHT22;9574;47.282;9.640;2023-03-14T11:57:34;12.10;99.90
18884;DHT22;9574;47.282;9.640;2023-03-14T12:00:04;12.30;99.90
18884;DHT22;9574;47.282;9.640;2023-03-14T12:02:41;12.30;99.90
18884;DHT22;9574;47.282;9.640;2023-03-14T12:05:31;12.10;99.90
18884;DHT22;9574;47.282;9.640;2023-03-14T12:08:29;12.00;99.90
18884;DHT22;9574;47.282;9.640;2023-03-14T12:11:00;11.80;99.90
18884;DHT22;9574;47.282;9.640;2023-03-14T12:13:33;11.70;99.90
18884;DHT22;9574;47.282;9.640;2023-03-14T12:16:05;11.60;99.90
18884;DHT22;9574;47.282;9.640;2023-03-14T12:18:34;11.70;99.90
18884;DHT22;9574;47.282;9.640;2023-03-14T12:21:05;11.90;99.90
18884;DHT22;9574;47.282;9.640;2023-03-14T12:23:37;12.00;99.90
18884;DHT22;9574;47.282;9.640;2023-03-14T12:26:12;11.90;99.90
18884;DHT22;9574;47.282;9.640;2023-03-14T12:28:44;11.90;99.90
18884;DHT22;9574;47.282;9.640;2023-03-14T12:31:37;11.80;99.90
18884;DHT22;9574;47.282;9.640;2023-03-14T12:34:27;11.80;99.90
18884;DHT22;9574;47.282;9.640;2023-03-14T12:37:20;11.70;99.90
18884;DHT22;9574;47.282;9.640;2023-03-14T12:40:03;11.70;99.90
18884;DHT22;9574;47.282;9.640;2023-03-14T12:42:43;11.70;99.90
18884;DHT22;9574;47.282;9.640;2023-03-14T12:45:23;11.60;99.90
18884;DHT22;9574;47.282;9.640;2023-03-14T12:47:56;11.40;99.90
18884;DHT22;9574;47.282;9.640;2023-03-14T12:50:32;11.20;99.90
18884;DHT22;9574;47.282;9.640;2023-03-14T12:53:22;11.00;99.90
18884;DHT22;9574;47.282;9.640;2023-03-14T12:55:58;10.90;99.90
18884;DHT22;9574;47.282;9.640;2023-03-14T12:58:32;10.80;99.90
18884;DHT22;9574;47.282;9.640;2023-03-14T13:01:05;10.80;99.90
18884;DHT22;9574;47.282;9.640;2023-03-14T13:03:42;10.90;99.90
18884;DHT22;9574;47.282;9.640;2023-03-14T13:06:45;10.80;99.90
18884;DHT22;9574;47.282;9.640;2023-03-14T13:08:58;10.90;99.90
18884;DHT22;9574;47.282;9.640;2023-03-14T13:11:45;10.90;99.90
18884;DHT22;9574;47.282;9.640;2023-03-14T13:14:14;10.80;99.90
18884;DHT22;9574;47.282;9.640;2023-03-14T13:16:42;10.80;99.90
18884;DHT22;9574;47.282;9.640;2023-03-14T13:19:17;10.70;99.90
18884;DHT22;9574;47.282;9.640;2023-03-14T13:21:45;10.80;99.90
18884;DHT22;9574;47.282;9.640;2023-03-14T13:24:22;10.50;99.90
18884;DHT22;9574;47.282;9.640;2023-03-14T13:26:49;10.40;99.90
18884;DHT22;9574;47.282;9.640;2023-03-14T13:29:20;10.40;99.90
18884;DHT22;9574;47.282;9.640;2023-03-14T13:31:51;10.30;99.90
18884;DHT22;9574;47.282;9.640;2023-03-14T13:34:20;10.20;99.90
18884;DHT22;9574;47.282;9.640;2023-03-14T13:36:52;10.00;99.90
18884;DHT22;9574;47.282;9.640;2023-03-14T13:39:21;10.00;99.90
18884;DHT22;9574;47.282;9.640;2023-03-14T13:41:50;10.10;99.90
18884;DHT22;9574;47.282;9.640;2023-03-14T13:44:21;10.30;99.90
18884;DHT22;9574;47.282;9.640;2023-03-14T13:46:51;10.20;99.90
18884;DHT22;9574;47.282;9.640;2023-03-14T13:49:22;10.40;99.90
18884;DHT22;9574;47.282;9.640;2023-03-14T13:51:50;10.40;99.90
18884;DHT22;9574;47.282;9.640;2023-03-14T13:54:18;10.50;99.90
18884;DHT22;9574;47.282;9.640;2023-03-14T13:56:46;10.50;99.90
18884;DHT22;9574;47.282;9.640;2023-03-14T13:59:22;10.60;99.90
18884;DHT22;9574;47.282;9.640;2023-03-14T14:01:52;10.40;99.90
18884;DHT22;9574;47.282;9.640;2023-03-14T14:04:21;10.30;99.90
18884;DHT22;9574;47.282;9.640;2023-03-14T14:06:52;10.10;99.90
18884;DHT22;9574;47.282;9.640;2023-03-14T14:09:24;10.10;99.90
18884;DHT22;9574;47.282;9.640;2023-03-14T14:11:54;10.10;99.90
18884;DHT22;9574;47.282;9.640;2023-03-14T14:14:25;10.00;99.90
18884;DHT22;9574;47.282;9.640;2023-03-14T14:16:55;9.80;99.90
18884;DHT22;9574;47.282;9.640;2023-03-14T14:19:27;9.70;99.90
18884;DHT22;9574;47.282;9.640;2023-03-14T14:21:54;9.80;99.90
18884;DHT22;9574;47.282;9.640;2023-03-14T14:24:24;9.90;99.90
18884;DHT22;9574;47.282;9.640;2023-03-14T14:26:59;9.90;99.90
18884;DHT22;9574;47.282;9.640;2023-03-14T14:29:28;9.90;99.90
18884;DHT22;9574;47.282;9.640;2023-03-14T14:32:11;9.60;99.90
18884;DHT22;9574;47.282;9.640;2023-03-14T14:34:40;9.70;99.90
18884;DHT22;9574;47.282;9.640;2023-03-14T14:37:24;9.90;99.90
18884;DHT22;9574;47.282;9.640;2023-03-14T14:39:52;10.10;99.90
18884;DHT22;9574;47.282;9.640;2023-03-14T14:42:21;10.10;99.90
18884;DHT22;9574;47.282;9.640;2023-03-14T14:44:50;10.10;99.90
18884;DHT22;9574;47.282;9.640;2023-03-14T14:47:21;10.10;99.90
18884;DHT22;9574;47.282;9.640;2023-03-14T14:49:49;10.10;99.90
18884;DHT22;9574;47.282;9.640;2023-03-14T14:52:18;10.20;99.90
18884;DHT22;9574;47.282;9.640;2023-03-14T14:54:46;10.30;99.90
18884;DHT22;9574;47.282;9.640;2023-03-14T14:57:19;10.40;99.90
18884;DHT22;9574;47.282;9.640;2023-03-14T14:59:48;10.40;99.90
18884;DHT22;9574;47.282;9.640;2023-03-14T15:02:31;10.40;99.90
18884;DHT22;9574;47.282;9.640;2023-03-14T15:04:59;10.40;99.90
18884;DHT22;9574;47.282;9.640;2023-03-14T15:07:26;10.30;99.90
18884;DHT22;9574;47.282;9.640;2023-03-14T15:09:53;10.30;99.90
18884;DHT22;9574;47.282;9.640;2023-03-14T15:12:20;10.40;99.90
18884;DHT22;9574;47.282;9.640;2023-03-14T15:14:50;10.40;99.90
18884;DHT22;9574;47.282;9.640;2023-03-14T15:17:17;10.40;99.90
18884;DHT22;9574;47.282;9.640;2023-03-14T15:19:45;10.40;99.90
18884;DHT22;9574;47.282;9.640;2023-03-14T15:22:12;10.10;99.90
18884;DHT22;9574;47.282;9.640;2023-03-14T15:24:40;9.90;99.90
18884;DHT22;9574;47.282;9.640;2023-03-14T15:27:12;9.80;99.90
18884;DHT22;9574;47.282;9.640;2023-03-14T15:29:40;9.70;99.90
18884;DHT22;9574;47.282;9.640;2023-03-14T15:32:10;9.80;99.90
18884;DHT22;9574;47.282;9.640;2023-03-14T15:34:37;9.70;99.90
18884;DHT22;9574;47.282;9.640;2023-03-14T15:37:08;9.60;99.90
18884;DHT22;9574;47.282;9.640;2023-03-14T15:39:35;9.50;99.90
18884;DHT22;9574;47.282;9.640;2023-03-14T15:42:02;9.70;99.90
18884;DHT22;9574;47.282;9.640;2023-03-14T15:44:29;9.80;99.90
18884;DHT22;9574;47.282;9.640;2023-03-14T15:46:56;9.50;99.90
18884;DHT22;9574;47.282;9.640;2023-03-14T15:49:23;9.40;99.90
18884;DHT22;9574;47.282;9.640;2023-03-14T15:51:50;9.50;99.90
18884;DHT22;9574;47.282;9.640;2023-03-14T15:54:18;9.50;99.90
18884;DHT22;9574;47.282;9.640;2023-03-14T15:56:45;9.60;99.90
18884;DHT22;9574;47.282;9.640;2023-03-14T15:59:12;9.70;99.90
18884;DHT22;9574;47.282;9.640;2023-03-14T16:01:39;9.80;99.90
18884;DHT22;9574;47.282;9.640;2023-03-14T16:04:06;9.70;99.90
18884;DHT22;9574;47.282;9.640;2023-03-14T16:06:33;9.50;99.90
18884;DHT22;9574;47.282;9.640;2023-03-14T16:09:01;9.50;99.90